Time;durP1;ratioP1;P1;durP2;ratioP2;P2;SDS_P1;SDS_P2;PMS_P1;PMS_P2;Temp;Humidity;BMP_temperature;BMP_pressure;BME280_temperature;BME280_humidity;BME280_pressure;Samples;Min_cycle;Max_cycle;Signal;HPM_P1;HPM_P2
2022/12/12 14:37:15;;;;;;;21.17;12.30;;;;;;;;;;6696992;27;20541;-82
2022/12/12 14:40:29;;;;;;;21.70;14.40;;;;;;;;;;6696270;28;20548;-80
2022/12/12 14:43:43;;;;;;;22.47;13.37;;;;;;;;;;6695967;28;20257;-81
2022/12/12 14:46:53;;;;;;;26.33;13.60;;;;;;;;;;6695671;28;20174;-82
2022/12/12 14:50:08;;;;;;;19.43;11.63;;;;;;;;;;6696485;28;20169;-81
2022/12/12 14:53:38;;;;;;;25.60;15.67;;;;;;;;;;6697826;28;20161;-81
2022/12/12 14:56:50;;;;;;;26.23;14.90;;;;;;;;;;6661529;28;20277;-81
2022/12/12 15:00:00;;;;;;;23.07;13.50;;;;;;;;;;6697696;28;20166;-81
2022/12/12 15:03:11;;;;;;;25.23;14.97;;;;;;;;;;6698171;28;20626;-82
2022/12/12 15:06:29;;;;;;;17.73;10.67;;;;;;;;;;6697551;28;20184;-81
2022/12/12 15:09:46;;;;;;;24.50;14.57;;;;;;;;;;6697664;28;20158;-81
2022/12/12 15:12:56;;;;;;;23.70;14.50;;;;;;;;;;6697957;28;20200;-82
2022/12/12 15:16:06;;;;;;;24.97;15.50;;;;;;;;;;6697091;28;20190;-82
2022/12/12 15:19:22;;;;;;;30.43;17.90;;;;;;;;;;6697841;28;20173;-82
2022/12/12 15:22:34;;;;;;;28.03;17.53;;;;;;;;;;6696839;28;20167;-81
2022/12/12 15:25:52;;;;;;;49.40;23.73;;;;;;;;;;6697046;28;20180;-82
2022/12/12 15:29:03;;;;;;;48.13;30.37;;;;;;;;;;6698339;28;20208;-81
2022/12/12 15:32:18;;;;;;;40.20;25.67;;;;;;;;;;6697188;28;20171;-81
2022/12/12 15:35:28;;;;;;;34.30;23.53;;;;;;;;;;6681464;28;20781;-81
2022/12/12 15:38:39;;;;;;;27.20;19.47;;;;;;;;;;6696517;28;20181;-81
2022/12/12 15:41:49;;;;;;;33.80;22.67;;;;;;;;;;6696906;28;20602;-81
2022/12/12 15:45:00;;;;;;;22.73;16.20;;;;;;;;;;6696529;28;20194;-81
2022/12/12 15:48:12;;;;;;;32.10;21.30;;;;;;;;;;6679364;28;20634;-81
2022/12/12 15:51:27;;;;;;;25.37;17.10;;;;;;;;;;6679792;28;20174;-81
2022/12/12 15:54:43;;;;;;;25.20;17.63;;;;;;;;;;6679412;28;20198;-81
2022/12/12 15:57:54;;;;;;;39.17;23.80;;;;;;;;;;6680516;28;20163;-81
2022/12/12 16:01:06;;;;;;;33.10;20.37;;;;;;;;;;6679535;28;20307;-81
2022/12/12 16:04:16;;;;;;;23.30;15.47;;;;;;;;;;6680118;28;20174;-82
2022/12/12 16:07:27;;;;;;;38.10;23.97;;;;;;;;;;6678940;28;20258;-81
2022/12/12 16:10:49;;;;;;;29.43;18.23;;;;;;;;;;6678007;28;20185;-82
2022/12/12 16:13:59;;;;;;;41.40;23.50;;;;;;;;;;6679002;28;20174;-82
2022/12/12 16:17:12;;;;;;;37.50;22.87;;;;;;;;;;6678326;28;20213;-82
2022/12/12 16:20:22;;;;;;;32.57;20.23;;;;;;;;;;6677896;28;20198;-82
2022/12/12 16:23:40;;;;;;;27.73;17.97;;;;;;;;;;6677618;28;20167;-82
2022/12/12 16:26:52;;;;;;;29.33;19.47;;;;;;;;;;6674953;28;20186;-83
2022/12/12 16:30:03;;;;;;;31.97;21.00;;;;;;;;;;6677858;28;20174;-83
2022/12/12 16:33:28;;;;;;;30.37;19.57;;;;;;;;;;6679685;28;20531;-82
2022/12/12 16:36:39;;;;;;;30.50;18.73;;;;;;;;;;6653513;28;20289;-82
2022/12/12 16:39:49;;;;;;;26.63;17.90;;;;;;;;;;6648817;28;20171;-83
2022/12/12 16:43:01;;;;;;;26.27;16.93;;;;;;;;;;6648807;28;20254;-82
2022/12/12 16:46:21;;;;;;;35.90;21.77;;;;;;;;;;6618631;28;20238;-82
2022/12/12 16:49:32;;;;;;;22.07;14.83;;;;;;;;;;6580942;28;20185;-82
2022/12/12 16:52:42;;;;;;;23.80;16.17;;;;;;;;;;6598509;28;20217;-81
2022/12/12 16:55:53;;;;;;;28.73;18.43;;;;;;;;;;6598383;28;20200;-82
2022/12/12 16:59:03;;;;;;;27.17;16.73;;;;;;;;;;6563012;28;20216;-82
2022/12/12 17:02:18;;;;;;;23.80;14.13;;;;;;;;;;6598400;28;20195;-82
2022/12/12 17:05:29;;;;;;;25.73;14.50;;;;;;;;;;6598832;28;20204;-82
2022/12/12 17:08:39;;;;;;;22.07;13.67;;;;;;;;;;6598498;28;20182;-82
2022/12/12 17:11:50;;;;;;;25.97;15.17;;;;;;;;;;6598598;28;20168;-82
2022/12/12 17:15:00;;;;;;;24.00;15.17;;;;;;;;;;6597409;28;20200;-82
2022/12/12 17:18:11;;;;;;;16.67;10.33;;;;;;;;;;6597321;28;20176;-82
2022/12/12 17:21:21;;;;;;;20.43;13.93;;;;;;;;;;6597697;28;20176;-82
2022/12/12 17:24:31;;;;;;;23.53;14.40;;;;;;;;;;6597725;28;20172;-82
2022/12/12 17:27:42;;;;;;;20.00;12.37;;;;;;;;;;6597126;28;20188;-82
2022/12/12 17:30:52;;;;;;;21.63;13.57;;;;;;;;;;6597715;28;20525;-82
2022/12/12 17:34:03;;;;;;;27.43;15.50;;;;;;;;;;6597862;28;20172;-82
2022/12/12 17:37:13;;;;;;;29.07;17.17;;;;;;;;;;6622737;28;20222;-82
2022/12/12 17:40:24;;;;;;;31.27;18.20;;;;;;;;;;6623010;28;20258;-81
2022/12/12 17:43:35;;;;;;;28.77;16.27;;;;;;;;;;6622721;28;20636;-82
2022/12/12 17:46:45;;;;;;;24.97;15.10;;;;;;;;;;6623935;28;20203;-82
2022/12/12 17:49:56;;;;;;;26.60;14.53;;;;;;;;;;6623700;28;20600;-82
2022/12/12 17:53:06;;;;;;;30.43;17.23;;;;;;;;;;6623169;28;20167;-81
2022/12/12 17:56:18;;;;;;;41.80;22.30;;;;;;;;;;6622670;28;20238;-82
2022/12/12 17:59:28;;;;;;;23.77;15.63;;;;;;;;;;6622954;28;20175;-82
2022/12/12 18:02:39;;;;;;;25.97;15.30;;;;;;;;;;6643837;28;20179;-82
2022/12/12 18:05:49;;;;;;;20.60;13.53;;;;;;;;;;6648661;28;20638;-82
2022/12/12 18:09:00;;;;;;;22.77;14.47;;;;;;;;;;6648726;28;20167;-82
2022/12/12 18:12:10;;;;;;;20.43;13.03;;;;;;;;;;6648607;28;20175;-82
2022/12/12 18:15:20;;;;;;;24.87;16.03;;;;;;;;;;6649552;28;20298;-81
2022/12/12 18:18:31;;;;;;;21.63;13.40;;;;;;;;;;6645605;28;20175;-82
2022/12/12 18:21:41;;;;;;;18.93;12.63;;;;;;;;;;6622212;28;20651;-82
2022/12/12 18:24:51;;;;;;;24.87;14.30;;;;;;;;;;6623510;28;20168;-82
2022/12/12 18:28:02;;;;;;;22.10;13.53;;;;;;;;;;6622506;28;20644;-82
2022/12/12 18:31:12;;;;;;;23.63;14.17;;;;;;;;;;6623367;28;20180;-82
2022/12/12 18:34:23;;;;;;;29.03;17.37;;;;;;;;;;6622095;28;20223;-82
2022/12/12 18:37:33;;;;;;;20.67;14.50;;;;;;;;;;6621860;28;20176;-82
2022/12/12 18:40:43;;;;;;;22.60;14.10;;;;;;;;;;6622250;28;20187;-82
2022/12/12 18:43:54;;;;;;;27.17;15.90;;;;;;;;;;6622208;28;20167;-82
2022/12/12 18:47:04;;;;;;;20.33;13.07;;;;;;;;;;6622212;28;20183;-82
2022/12/12 18:50:15;;;;;;;19.30;12.90;;;;;;;;;;6621709;28;20202;-82
2022/12/12 18:53:25;;;;;;;18.10;9.47;;;;;;;;;;6622456;28;20608;-82
2022/12/12 18:56:35;;;;;;;21.13;12.90;;;;;;;;;;6622765;28;20227;-82
2022/12/12 18:59:46;;;;;;;17.83;12.23;;;;;;;;;;6622492;28;20284;-82
2022/12/12 19:02:57;;;;;;;17.03;11.60;;;;;;;;;;6622075;28;20168;-81
2022/12/12 19:06:09;;;;;;;20.83;12.60;;;;;;;;;;6621939;28;20180;-82
2022/12/12 19:09:19;;;;;;;19.80;12.00;;;;;;;;;;6622060;28;20569;-82
2022/12/12 19:12:30;;;;;;;20.60;12.60;;;;;;;;;;6634504;28;20178;-82
2022/12/12 19:15:41;;;;;;;18.77;12.33;;;;;;;;;;6633496;28;20206;-82
2022/12/12 19:18:51;;;;;;;19.47;13.10;;;;;;;;;;6633804;28;20586;-82
2022/12/12 19:22:01;;;;;;;15.97;10.27;;;;;;;;;;6649276;28;20194;-82
2022/12/12 19:25:12;;;;;;;16.13;10.03;;;;;;;;;;6638266;28;20191;-82
2022/12/12 19:28:23;;;;;;;16.07;10.87;;;;;;;;;;6640508;28;20522;-82
2022/12/12 19:31:34;;;;;;;19.27;13.00;;;;;;;;;;6653072;28;20187;-82
2022/12/12 19:34:45;;;;;;;18.20;11.43;;;;;;;;;;6645970;28;20238;-82
2022/12/12 19:37:55;;;;;;;21.37;13.07;;;;;;;;;;6625907;28;20168;-82
2022/12/12 19:41:08;;;;;;;21.43;13.37;;;;;;;;;;6626677;28;20168;-82
2022/12/12 19:44:19;;;;;;;22.03;12.53;;;;;;;;;;6599427;28;20271;-82
2022/12/12 19:47:30;;;;;;;20.43;13.17;;;;;;;;;;6613186;28;20616;-81
2022/12/12 19:50:41;;;;;;;19.57;12.13;;;;;;;;;;6613309;28;20180;-81
2022/12/12 19:53:52;;;;;;;19.47;11.73;;;;;;;;;;6611860;28;20192;-82
2022/12/12 19:57:02;;;;;;;16.13;10.10;;;;;;;;;;6612590;28;20212;-82
2022/12/12 20:00:14;;;;;;;18.17;11.63;;;;;;;;;;6616561;28;20189;-82
2022/12/12 20:03:25;;;;;;;20.30;12.33;;;;;;;;;;6614619;28;20175;-82
2022/12/12 20:06:40;;;;;;;19.03;12.13;;;;;;;;;;6600196;28;20179;-82
2022/12/12 20:09:51;;;;;;;16.83;10.87;;;;;;;;;;6610994;28;20255;-82
2022/12/12 20:13:01;;;;;;;15.00;10.60;;;;;;;;;;6607081;28;20173;-82
2022/12/12 20:16:13;;;;;;;18.23;10.67;;;;;;;;;;6599560;28;20599;-82
2022/12/12 20:19:25;;;;;;;22.83;12.03;;;;;;;;;;6615456;28;20184;-82
2022/12/12 20:22:36;;;;;;;21.53;11.50;;;;;;;;;;6613458;28;20578;-82
2022/12/12 20:25:46;;;;;;;19.67;11.57;;;;;;;;;;6614067;28;20171;-82
2022/12/12 20:28:58;;;;;;;19.60;11.23;;;;;;;;;;6610866;28;20661;-82
2022/12/12 20:32:10;;;;;;;16.63;10.53;;;;;;;;;;6592184;28;20643;-82
2022/12/12 20:35:20;;;;;;;22.83;12.00;;;;;;;;;;6609161;28;20227;-82
2022/12/12 20:38:31;;;;;;;21.07;12.33;;;;;;;;;;6604580;28;20192;-82
2022/12/12 20:41:42;;;;;;;18.10;11.37;;;;;;;;;;6606769;28;20246;-82
2022/12/12 20:44:52;;;;;;;18.57;11.90;;;;;;;;;;6605543;28;20169;-82
2022/12/12 20:48:02;;;;;;;20.73;10.70;;;;;;;;;;6601675;28;20565;-82
2022/12/12 20:51:16;;;;;;;15.83;10.33;;;;;;;;;;6600885;28;20179;-81
2022/12/12 20:54:27;;;;;;;18.53;10.90;;;;;;;;;;6607815;28;20173;-82
2022/12/12 20:57:38;;;;;;;17.67;10.20;;;;;;;;;;6610252;28;20173;-82
2022/12/12 21:00:48;;;;;;;18.77;10.90;;;;;;;;;;6610135;28;20187;-82
2022/12/12 21:03:59;;;;;;;16.87;11.03;;;;;;;;;;6612709;28;20262;-82
2022/12/12 21:07:09;;;;;;;18.40;10.90;;;;;;;;;;6588635;28;20509;-82
2022/12/12 21:10:19;;;;;;;15.23;9.40;;;;;;;;;;6597934;28;20525;-82
2022/12/12 21:13:30;;;;;;;14.93;9.97;;;;;;;;;;6597946;28;20187;-82
2022/12/12 21:16:40;;;;;;;18.43;11.07;;;;;;;;;;6598510;28;20712;-81
2022/12/12 21:19:50;;;;;;;16.67;11.70;;;;;;;;;;6597443;28;20629;-81
2022/12/12 21:23:01;;;;;;;15.30;9.40;;;;;;;;;;6598063;28;20172;-81
2022/12/12 21:26:13;;;;;;;15.93;9.67;;;;;;;;;;6597754;28;20200;-82
2022/12/12 21:29:23;;;;;;;18.43;10.80;;;;;;;;;;6597168;28;20168;-81
2022/12/12 21:32:33;;;;;;;17.80;10.53;;;;;;;;;;6597479;28;20678;-81
2022/12/12 21:35:44;;;;;;;15.87;9.63;;;;;;;;;;6597386;28;20710;-82
2022/12/12 21:38:55;;;;;;;15.97;10.57;;;;;;;;;;6597303;28;20172;-81
2022/12/12 21:42:05;;;;;;;18.63;11.40;;;;;;;;;;6579494;28;20625;-81
2022/12/12 21:45:16;;;;;;;21.53;12.30;;;;;;;;;;6596643;28;20176;-82
2022/12/12 21:48:27;;;;;;;20.23;12.43;;;;;;;;;;6597167;28;20180;-82
2022/12/12 21:51:39;;;;;;;15.13;10.30;;;;;;;;;;6597379;28;20172;-82
2022/12/12 21:54:49;;;;;;;18.57;10.97;;;;;;;;;;6596490;28;20302;-82
2022/12/12 21:57:59;;;;;;;23.13;13.17;;;;;;;;;;6596857;28;20168;-82
2022/12/12 22:01:14;;;;;;;22.37;13.47;;;;;;;;;;6597843;28;20597;-82
2022/12/12 22:04:24;;;;;;;18.17;12.00;;;;;;;;;;6597181;28;20246;-82
2022/12/12 22:07:35;;;;;;;15.57;10.83;;;;;;;;;;6580042;28;20200;-82
2022/12/12 22:10:45;;;;;;;20.20;12.23;;;;;;;;;;6596925;28;20172;-81
2022/12/12 22:13:55;;;;;;;17.73;11.37;;;;;;;;;;6596558;28;20168;-82
2022/12/12 22:17:06;;;;;;;20.87;13.50;;;;;;;;;;6596689;28;20219;-82
2022/12/12 22:20:16;;;;;;;21.07;12.93;;;;;;;;;;6597235;28;20628;-82
2022/12/12 22:23:27;;;;;;;17.37;11.80;;;;;;;;;;6596773;28;20168;-82
2022/12/12 22:26:39;;;;;;;16.80;10.67;;;;;;;;;;6595778;28;20191;-82
2022/12/12 22:29:49;;;;;;;19.43;12.07;;;;;;;;;;6578653;28;20182;-82
2022/12/12 22:32:59;;;;;;;18.63;11.60;;;;;;;;;;6578532;28;20180;-81
2022/12/12 22:36:10;;;;;;;22.97;13.20;;;;;;;;;;6595810;28;20228;-82
2022/12/12 22:39:22;;;;;;;20.93;13.13;;;;;;;;;;6595977;28;20543;-81
2022/12/12 22:42:32;;;;;;;23.73;14.50;;;;;;;;;;6596232;28;20223;-82
2022/12/12 22:45:42;;;;;;;31.97;16.90;;;;;;;;;;6617717;28;20175;-82
2022/12/12 22:48:54;;;;;;;25.97;15.93;;;;;;;;;;6622552;28;20168;-81
2022/12/12 22:52:04;;;;;;;22.97;13.13;;;;;;;;;;6622565;28;20174;-82
2022/12/12 22:55:15;;;;;;;14.30;9.87;;;;;;;;;;6622037;28;20200;-81
2022/12/12 22:58:25;;;;;;;23.63;14.67;;;;;;;;;;6626330;28;20176;-81
2022/12/12 23:01:35;;;;;;;24.80;15.80;;;;;;;;;;6627378;28;20168;-81
2022/12/12 23:04:45;;;;;;;21.37;14.20;;;;;;;;;;6627563;28;20194;-82
2022/12/12 23:07:56;;;;;;;17.90;11.80;;;;;;;;;;6627910;28;20612;-82
2022/12/12 23:11:11;;;;;;;18.07;12.00;;;;;;;;;;6628173;28;20262;-82
2022/12/12 23:14:23;;;;;;;18.73;11.47;;;;;;;;;;6627019;28;20190;-82
2022/12/12 23:17:34;;;;;;;17.43;11.30;;;;;;;;;;6626415;28;20199;-82
2022/12/12 23:20:44;;;;;;;16.13;10.40;;;;;;;;;;6626866;28;20620;-82
2022/12/12 23:23:55;;;;;;;20.03;11.70;;;;;;;;;;6626454;28;20175;-81
2022/12/12 23:27:05;;;;;;;14.67;9.33;;;;;;;;;;6626353;28;20270;-82
2022/12/12 23:30:16;;;;;;;16.77;11.13;;;;;;;;;;6626062;28;20577;-82
2022/12/12 23:33:26;;;;;;;18.87;12.07;;;;;;;;;;6627333;28;20164;-82
2022/12/12 23:36:37;;;;;;;17.77;11.83;;;;;;;;;;6626842;28;20238;-81
2022/12/12 23:39:48;;;;;;;15.30;10.73;;;;;;;;;;6625988;28;20289;-81
2022/12/12 23:42:59;;;;;;;15.87;10.47;;;;;;;;;;6625989;28;20226;-81
2022/12/12 23:46:30;;;;;;;15.40;10.40;;;;;;;;;;6626287;28;20176;-82
2022/12/12 23:49:41;;;;;;;19.93;12.53;;;;;;;;;;6625817;28;20180;-81
2022/12/12 23:52:52;;;;;;;20.63;13.17;;;;;;;;;;6626053;28;20183;-81
2022/12/12 23:56:03;;;;;;;22.07;12.90;;;;;;;;;;6626201;28;20204;-82
2022/12/12 23:59:14;;;;;;;17.37;10.83;;;;;;;;;;6625966;28;20174;-81
